»·PEaware :: FDX922 CYXH-KCOS

FDX922 :: CYXH-KCOS

FLIGHT INFORMATION

Flight Status: Arrived
Operator:
Federal Express
More flights by this operator :: More flights under this callsign
Pilot: Charles S. (11412)
Aircraft: BOEING 757-200
(B752)
More flights by this aircraft type
Origin: CYXH Medicine Hat
Canada
Destination: KCOS City Of Colorado Springs Mun
United States
More flights between these airports :: More routes between these airports
Route: WLLES BOY HBU DRBY3
File this flight plan on PilotEdge
Remarks:
Altitude:
(Current/Filed)
39,000ft
Speed:
(Current/Filed)
400kts
Departed: 02-Dec-18 03:37 PM
Arrived: 02-Dec-18 06:10 PM
Distance/Time
Traveled:
719nm/2:33
Distance/Time
To Go:
Arrived

Flight Plot

Page will automatically refresh every two minutes.

Flight plan parsing failed; only flown route is shown


Map Options




Map Legend


Flown Route
Filed Route
Departure Airport
Arrival Airport
Navaid (VOR, NDB)
Fix

Horizontal Profiles

Position Reports

Time Latitude Longitude Heading Altitude Ground
Speed
02-Dec-18 15:01 50.021479 -110.721950 359 2364ft 0kts
02-Dec-18 15:02 50.021479 -110.721950 359 2364ft 0kts
02-Dec-18 15:03 50.021479 -110.721950 359 2364ft 0kts
02-Dec-18 15:04 50.021479 -110.721950 359 2364ft 0kts
02-Dec-18 15:05 50.021479 -110.721950 359 2364ft 0kts
02-Dec-18 15:06 50.021479 -110.721950 359 2364ft 0kts
02-Dec-18 15:07 50.021479 -110.721950 359 2364ft 0kts
02-Dec-18 15:08 50.021479 -110.721950 359 2364ft 0kts
02-Dec-18 15:09 50.021479 -110.721950 359 2364ft 0kts
02-Dec-18 15:10 50.021479 -110.721950 359 2364ft 0kts
02-Dec-18 15:11 50.021479 -110.721950 359 2364ft 0kts
02-Dec-18 15:12 50.021479 -110.721950 359 2364ft 0kts
02-Dec-18 15:13 50.021479 -110.721950 359 2364ft 0kts
02-Dec-18 15:14 50.021479 -110.721950 359 2364ft 0kts
02-Dec-18 15:15 50.021479 -110.721950 359 2364ft 0kts
02-Dec-18 15:16 50.021479 -110.721950 359 2364ft 0kts
02-Dec-18 15:17 50.021479 -110.721950 359 2364ft 0kts
02-Dec-18 15:18 50.021479 -110.721950 359 2364ft 0kts
02-Dec-18 15:19 50.021479 -110.721950 0 2364ft 0kts
02-Dec-18 15:20 50.021479 -110.721950 0 2364ft 0kts
02-Dec-18 15:21 50.021479 -110.721950 0 2364ft 0kts
02-Dec-18 15:22 50.021479 -110.721950 0 2364ft 0kts
02-Dec-18 15:23 50.021479 -110.721950 0 2364ft 0kts
02-Dec-18 15:24 50.021479 -110.721950 0 2364ft 0kts
02-Dec-18 15:25 50.021479 -110.721950 0 2364ft 0kts
02-Dec-18 15:26 50.021479 -110.721950 0 2364ft 0kts
02-Dec-18 15:27 50.021479 -110.721950 0 2364ft 0kts
02-Dec-18 15:28 50.021479 -110.721950 0 2364ft 0kts
02-Dec-18 15:29 50.021479 -110.721950 0 2364ft 0kts
02-Dec-18 15:30 50.021479 -110.721950 0 2364ft 0kts
02-Dec-18 15:31 50.021479 -110.721950 0 2364ft 0kts
02-Dec-18 15:32 50.021479 -110.721950 0 2364ft 0kts
02-Dec-18 15:33 50.021479 -110.721950 0 2364ft 0kts
02-Dec-18 15:34 50.021479 -110.721950 0 2364ft 0kts
02-Dec-18 15:35 50.021479 -110.721950 0 2364ft 0kts
02-Dec-18 15:36 50.021307 -110.722097 66 2364ft 2kts
02-Dec-18 15:37 50.021307 -110.722597 90 2364ft 0kts
02-Dec-18 15:38 50.021307 -110.722597 90 2364ft 0kts
02-Dec-18 15:39 50.021131 -110.722103 134 2364ft 18kts
02-Dec-18 15:40 50.021453 -110.716546 47 2363ft 48kts
02-Dec-18 15:41 50.023848 -110.713631 185 2364ft 0kts
02-Dec-18 15:42 50.023100 -110.714102 224 2363ft 4kts
02-Dec-18 15:43 50.007855 -110.736595 210 3342ft 169kts
02-Dec-18 15:44 49.972749 -110.702574 141 6089ft 177kts
02-Dec-18 15:45 49.929481 -110.664109 159 8499ft 191kts
02-Dec-18 15:46 49.874352 -110.631199 162 10738ft 249kts
02-Dec-18 15:47 49.809598 -110.595323 162 12777ft 299kts
02-Dec-18 15:48 49.724783 -110.548880 163 15031ft 337kts
02-Dec-18 15:49 49.635859 -110.500462 163 17242ft 345kts
02-Dec-18 15:50 49.545001 -110.451180 163 19448ft 354kts
02-Dec-18 15:51 49.451354 -110.400604 163 21666ft 362kts
02-Dec-18 15:52 49.355894 -110.349279 164 23870ft 370kts
02-Dec-18 15:53 49.258549 -110.297149 164 26045ft 379kts
02-Dec-18 15:54 49.159930 -110.244536 164 28187ft 387kts
02-Dec-18 15:55 49.057225 -110.190014 164 30367ft 395kts
02-Dec-18 15:56 48.954038 -110.136478 166 32507ft 398kts
02-Dec-18 15:57 48.849473 -110.097549 166 34605ft 401kts
02-Dec-18 15:58 48.740791 -110.057391 166 36431ft 406kts
02-Dec-18 15:59 48.631853 -110.017385 166 38238ft 403kts
02-Dec-18 16:00 48.522925 -109.977561 166 39139ft 409kts
02-Dec-18 16:01 48.412832 -109.937509 166 39138ft 408kts
02-Dec-18 16:02 48.302750 -109.897613 166 39128ft 408kts
02-Dec-18 16:03 48.200901 -109.860856 166 39127ft 408kts
02-Dec-18 16:04 48.094815 -109.822725 166 39127ft 408kts
02-Dec-18 16:05 47.984870 -109.783394 166 39143ft 410kts
02-Dec-18 16:06 47.877198 -109.745045 166 39156ft 410kts
02-Dec-18 16:07 47.766451 -109.705756 167 39134ft 410kts
02-Dec-18 16:08 47.656605 -109.666971 166 39097ft 409kts
02-Dec-18 16:09 47.546719 -109.628338 166 39096ft 409kts
02-Dec-18 16:10 47.436748 -109.589832 166 39092ft 410kts
02-Dec-18 16:11 47.326297 -109.551342 166 39089ft 410kts
02-Dec-18 16:12 47.218349 -109.513859 166 39088ft 410kts
02-Dec-18 16:13 47.109462 -109.476196 166 39089ft 410kts
02-Dec-18 16:14 47.002374 -109.439328 166 39087ft 414kts
02-Dec-18 16:15 46.889951 -109.400803 166 39093ft 428kts
02-Dec-18 16:16 46.774489 -109.361409 165 39096ft 430kts
02-Dec-18 16:17 46.658951 -109.322154 166 39096ft 430kts
02-Dec-18 16:18 46.549598 -109.285160 166 39100ft 430kts
02-Dec-18 16:19 46.433872 -109.246180 166 39095ft 430kts
02-Dec-18 16:20 46.317978 -109.207316 166 39094ft 430kts
02-Dec-18 16:21 46.202303 -109.168681 166 39096ft 428kts
02-Dec-18 16:22 46.086445 -109.130169 166 39089ft 427kts
02-Dec-18 16:23 45.971370 -109.092057 166 39089ft 426kts
02-Dec-18 16:24 45.858468 -109.054836 166 39101ft 424kts
02-Dec-18 16:25 45.743838 -109.017201 165 39099ft 423kts
02-Dec-18 16:26 45.629988 -108.979981 165 39098ft 422kts
02-Dec-18 16:27 45.516215 -108.942926 165 39096ft 421kts
02-Dec-18 16:28 45.401983 -108.905888 165 39084ft 421kts
02-Dec-18 16:29 45.288438 -108.869224 165 39046ft 421kts
02-Dec-18 16:30 45.174387 -108.832565 165 39035ft 421kts
02-Dec-18 16:31 45.060471 -108.796051 165 39034ft 426kts
02-Dec-18 16:32 44.943629 -108.758782 166 39037ft 437kts
02-Dec-18 16:34 44.715579 -108.686525 166 39040ft 436kts
02-Dec-18 16:35 44.597143 -108.649221 166 39041ft 436kts
02-Dec-18 16:36 44.479196 -108.612212 166 39053ft 436kts
02-Dec-18 16:37 44.362000 -108.575585 166 39058ft 435kts
02-Dec-18 16:38 44.243779 -108.538812 166 39063ft 436kts
02-Dec-18 16:39 44.125999 -108.502309 166 39067ft 436kts
02-Dec-18 16:40 44.027993 -108.472059 166 39061ft 437kts
02-Dec-18 16:41 43.890402 -108.429755 166 39055ft 436kts
02-Dec-18 16:42 43.772441 -108.393662 166 39061ft 436kts
02-Dec-18 16:43 43.654248 -108.357623 166 39051ft 436kts
02-Dec-18 16:44 43.558660 -108.328572 167 39020ft 436kts
02-Dec-18 16:45 43.420341 -108.287985 168 38995ft 436kts
02-Dec-18 16:46 43.321393 -108.261186 168 38989ft 436kts
02-Dec-18 16:47 43.182788 -108.223752 168 38992ft 436kts
02-Dec-18 16:48 43.083741 -108.197109 168 38992ft 436kts
02-Dec-18 16:49 42.964765 -108.165146 170 38990ft 446kts
02-Dec-18 16:50 42.840606 -108.132064 170 38994ft 465kts
02-Dec-18 16:51 42.693514 -108.092970 170 38995ft 465kts
02-Dec-18 16:52 42.587871 -108.065008 170 38994ft 465kts
02-Dec-18 16:53 42.461309 -108.031632 170 38994ft 465kts
02-Dec-18 16:54 42.335178 -107.998510 170 38994ft 465kts
02-Dec-18 16:55 42.208551 -107.965394 170 38993ft 465kts
02-Dec-18 16:56 42.083026 -107.932697 170 38975ft 465kts
02-Dec-18 16:57 41.957200 -107.900053 170 38929ft 465kts
02-Dec-18 16:58 41.831633 -107.867610 170 38913ft 464kts
02-Dec-18 16:59 41.705204 -107.835073 170 38913ft 464kts
02-Dec-18 17:00 41.578498 -107.802597 170 38913ft 464kts
02-Dec-18 17:01 41.451963 -107.770292 170 38913ft 464kts
02-Dec-18 17:02 41.325850 -107.738222 170 38913ft 465kts
02-Dec-18 17:03 41.199196 -107.706141 170 38912ft 465kts
02-Dec-18 17:04 41.072726 -107.674205 171 38913ft 466kts
02-Dec-18 17:05 40.943849 -107.641820 173 38917ft 482kts
02-Dec-18 17:06 40.815409 -107.609699 173 38919ft 481kts
02-Dec-18 17:07 40.684806 -107.577143 173 38915ft 481kts
02-Dec-18 17:08 40.554049 -107.544674 173 38897ft 481kts
02-Dec-18 17:09 40.423536 -107.512393 173 38898ft 481kts
02-Dec-18 17:10 40.292804 -107.480185 173 38900ft 481kts
02-Dec-18 17:11 40.161839 -107.448037 173 38901ft 481kts
02-Dec-18 17:12 40.031167 -107.416104 173 38907ft 481kts
02-Dec-18 17:13 39.901333 -107.384491 173 38913ft 481kts
02-Dec-18 17:14 39.772379 -107.353217 173 38910ft 481kts
02-Dec-18 17:15 39.643386 -107.322051 174 38898ft 480kts
02-Dec-18 17:16 39.512894 -107.290649 174 38894ft 480kts
02-Dec-18 17:17 39.382265 -107.259321 174 38851ft 480kts
02-Dec-18 17:18 39.251078 -107.227986 174 38838ft 480kts
02-Dec-18 17:19 39.120469 -107.196905 174 38829ft 480kts
02-Dec-18 17:20 38.989916 -107.165927 175 37867ft 482kts
02-Dec-18 17:21 38.859347 -107.135075 177 36588ft 489kts
02-Dec-18 17:22 38.726120 -107.103785 177 35220ft 491kts
02-Dec-18 17:23 38.592074 -107.069334 168 33718ft 501kts
02-Dec-18 17:24 38.481489 -106.968467 131 32253ft 499kts
02-Dec-18 17:25 38.435675 -106.806734 94 30804ft 490kts
02-Dec-18 17:26 38.431147 -106.637228 96 29330ft 471kts
02-Dec-18 17:27 38.425297 -106.519502 97 28266ft 458kts
02-Dec-18 17:28 38.425297 -106.519502 97 28266ft 458kts
02-Dec-18 17:29 38.425297 -106.519502 97 28266ft 458kts
02-Dec-18 17:30 38.425297 -106.519502 97 28266ft 458kts
02-Dec-18 17:31 38.425297 -106.519502 97 28266ft 458kts
02-Dec-18 17:32 38.425297 -106.519502 97 28266ft 458kts
02-Dec-18 17:33 38.425297 -106.519502 97 28266ft 458kts
02-Dec-18 17:34 38.420513 -106.430049 97 27439ft 448kts
02-Dec-18 17:35 38.412959 -106.292754 99 26087ft 431kts
02-Dec-18 17:36 38.405969 -106.168446 99 24410ft 413kts
02-Dec-18 17:37 38.398581 -106.039404 99 22720ft 391kts
02-Dec-18 17:38 38.391930 -105.925408 98 21190ft 373kts
02-Dec-18 17:39 38.385574 -105.818338 98 19687ft 357kts
02-Dec-18 17:40 38.379698 -105.720703 97 18262ft 345kts
02-Dec-18 17:41 38.374358 -105.633409 97 17029ft 333kts
02-Dec-18 17:42 38.369394 -105.553001 96 17002ft 336kts
02-Dec-18 17:43 38.364498 -105.474249 96 16987ft 335kts
02-Dec-18 17:44 38.359265 -105.391147 96 16971ft 335kts
02-Dec-18 17:45 38.354156 -105.310948 97 16963ft 335kts
02-Dec-18 17:46 38.348792 -105.227817 97 16963ft 335kts
02-Dec-18 17:47 38.343409 -105.145249 97 16962ft 335kts
02-Dec-18 17:48 38.337135 -105.050164 97 16964ft 331kts
02-Dec-18 17:49 38.329690 -104.939564 91 16969ft 309kts
02-Dec-18 17:50 38.322410 -104.831468 91 16973ft 313kts
02-Dec-18 17:51 38.315073 -104.724482 91 16978ft 313kts
02-Dec-18 17:52 38.310880 -104.640321 79 16386ft 305kts
02-Dec-18 17:53 38.342914 -104.580529 26 15400ft 295kts
02-Dec-18 17:54 38.389142 -104.573052 357 14499ft 294kts
02-Dec-18 17:55 38.443610 -104.578074 358 13424ft 293kts
02-Dec-18 17:56 38.515388 -104.576824 2 12029ft 290kts
02-Dec-18 17:57 38.571192 -104.575111 2 11967ft 268kts
02-Dec-18 17:58 38.627441 -104.573414 2 11971ft 268kts
02-Dec-18 17:59 38.690144 -104.571511 2 11974ft 268kts
02-Dec-18 18:00 38.752908 -104.569597 2 11970ft 268kts
02-Dec-18 18:01 38.818528 -104.567585 2 10933ft 263kts
02-Dec-18 18:02 38.885205 -104.565498 2 9984ft 250kts
02-Dec-18 18:03 38.943601 -104.563494 2 9989ft 232kts
02-Dec-18 18:04 38.995223 -104.564333 339 9919ft 232kts
02-Dec-18 18:05 39.038832 -104.613431 317 8979ft 216kts
02-Dec-18 18:06 39.043459 -104.673720 218 9020ft 210kts
02-Dec-18 18:07 38.990286 -104.684997 180 8982ft 205kts
02-Dec-18 18:08 38.939485 -104.685413 179 8632ft 189kts
02-Dec-18 18:09 38.899906 -104.685525 178 7875ft 157kts
02-Dec-18 18:10 38.859570 -104.685612 178 7087ft 149kts
02-Dec-18 18:11 38.820465 -104.685721 178 6317ft 147kts
02-Dec-18 18:12 38.793712 -104.685765 179 6130ft 86kts
02-Dec-18 18:13 38.791208 -104.687663 1 6133ft 26kts
02-Dec-18 18:14 38.801842 -104.687636 356 6159ft 48kts
02-Dec-18 18:15 38.803969 -104.698061 270 6131ft 54kts
02-Dec-18 18:16 38.803971 -104.716459 268 6089ft 39kts
02-Dec-18 18:17 38.810528 -104.717803 1 6110ft 47kts
02-Dec-18 18:18 38.812610 -104.721034 309 6116ft 11kts
02-Dec-18 18:19 38.813986 -104.721567 1 6121ft 1kts
02-Dec-18 18:20 38.814500 -104.721522 5 6123ft 13kts

Navigation Log

Ident Type
Flight plan parsing failed, navigation log unavailable